sensor_id;sensor_type;location;lat;lon;timestamp;temperature;humidity
80250;DHT22;69561;37.974;23.708;2023-06-14T00:01:47;27.40;47.20
80250;DHT22;69561;37.974;23.708;2023-06-14T00:04:13;27.40;47.20
80250;DHT22;69561;37.974;23.708;2023-06-14T00:06:39;27.40;47.30
80250;DHT22;69561;37.974;23.708;2023-06-14T00:09:07;27.40;47.20
80250;DHT22;69561;37.974;23.708;2023-06-14T00:11:34;27.40;47.30
80250;DHT22;69561;37.974;23.708;2023-06-14T00:13:59;27.40;47.30
80250;DHT22;69561;37.974;23.708;2023-06-14T00:16:25;27.40;48.30
80250;DHT22;69561;37.974;23.708;2023-06-14T00:18:51;27.40;47.30
80250;DHT22;69561;37.974;23.708;2023-06-14T00:21:17;27.40;47.30
80250;DHT22;69561;37.974;23.708;2023-06-14T00:23:43;27.40;48.30
80250;DHT22;69561;37.974;23.708;2023-06-14T00:26:09;27.40;47.30
80250;DHT22;69561;37.974;23.708;2023-06-14T00:28:35;27.40;47.30
80250;DHT22;69561;37.974;23.708;2023-06-14T00:31:00;27.40;47.40
80250;DHT22;69561;37.974;23.708;2023-06-14T00:33:26;27.40;47.30
80250;DHT22;69561;37.974;23.708;2023-06-14T00:35:52;27.40;47.30
80250;DHT22;69561;37.974;23.708;2023-06-14T00:38:20;27.40;47.30
80250;DHT22;69561;37.974;23.708;2023-06-14T00:40:46;27.40;47.30
80250;DHT22;69561;37.974;23.708;2023-06-14T00:43:12;27.40;47.30
80250;DHT22;69561;37.974;23.708;2023-06-14T00:45:38;27.40;47.30
80250;DHT22;69561;37.974;23.708;2023-06-14T00:48:04;27.40;47.30
80250;DHT22;69561;37.974;23.708;2023-06-14T00:50:32;27.30;47.10
80250;DHT22;69561;37.974;23.708;2023-06-14T00:52:59;27.40;47.20
80250;DHT22;69561;37.974;23.708;2023-06-14T00:55:26;27.40;47.20
80250;DHT22;69561;37.974;23.708;2023-06-14T00:57:53;27.40;47.20
80250;DHT22;69561;37.974;23.708;2023-06-14T01:00:19;27.40;47.20
80250;DHT22;69561;37.974;23.708;2023-06-14T01:02:45;27.40;47.10
80250;DHT22;69561;37.974;23.708;2023-06-14T01:05:11;27.40;47.20
80250;DHT22;69561;37.974;23.708;2023-06-14T01:15:36;27.30;47.00
80250;DHT22;69561;37.974;23.708;2023-06-14T01:18:04;27.40;47.20
80250;DHT22;69561;37.974;23.708;2023-06-14T01:20:32;27.30;47.10
80250;DHT22;69561;37.974;23.708;2023-06-14T01:22:59;27.40;47.10
80250;DHT22;69561;37.974;23.708;2023-06-14T01:25:25;27.40;47.10
80250;DHT22;69561;37.974;23.708;2023-06-14T01:27:55;27.30;47.00
80250;DHT22;69561;37.974;23.708;2023-06-14T01:30:23;27.40;47.00
80250;DHT22;69561;37.974;23.708;2023-06-14T01:32:52;27.30;46.90
80250;DHT22;69561;37.974;23.708;2023-06-14T01:35:20;27.30;47.00
80250;DHT22;69561;37.974;23.708;2023-06-14T01:37:47;27.40;47.00
80250;DHT22;69561;37.974;23.708;2023-06-14T01:40:15;27.30;46.90
80250;DHT22;69561;37.974;23.708;2023-06-14T01:42:41;27.30;47.00
80250;DHT22;69561;37.974;23.708;2023-06-14T01:45:09;27.30;46.90
80250;DHT22;69561;37.974;23.708;2023-06-14T01:47:35;27.40;46.90
80250;DHT22;69561;37.974;23.708;2023-06-14T01:50:04;27.40;46.80
80250;DHT22;69561;37.974;23.708;2023-06-14T01:52:30;27.40;46.90
80250;DHT22;69561;37.974;23.708;2023-06-14T01:54:56;27.40;46.80
80250;DHT22;69561;37.974;23.708;2023-06-14T01:57:24;27.30;46.80
80250;DHT22;69561;37.974;23.708;2023-06-14T01:59:51;27.30;46.80
80250;DHT22;69561;37.974;23.708;2023-06-14T02:02:16;27.30;46.80
80250;DHT22;69561;37.974;23.708;2023-06-14T02:04:42;27.30;46.80
80250;DHT22;69561;37.974;23.708;2023-06-14T02:07:08;27.40;46.90
80250;DHT22;69561;37.974;23.708;2023-06-14T02:09:34;27.30;46.70
80250;DHT22;69561;37.974;23.708;2023-06-14T02:12:01;27.40;46.80
80250;DHT22;69561;37.974;23.708;2023-06-14T02:14:26;27.40;46.80
80250;DHT22;69561;37.974;23.708;2023-06-14T02:16:52;27.40;46.80
80250;DHT22;69561;37.974;23.708;2023-06-14T02:19:20;27.30;46.70
80250;DHT22;69561;37.974;23.708;2023-06-14T02:21:46;27.40;46.80
80250;DHT22;69561;37.974;23.708;2023-06-14T02:24:12;27.40;46.80
80250;DHT22;69561;37.974;23.708;2023-06-14T02:26:39;27.40;46.80
80250;DHT22;69561;37.974;23.708;2023-06-14T02:29:06;27.40;46.80
80250;DHT22;69561;37.974;23.708;2023-06-14T02:31:35;27.30;46.80
80250;DHT22;69561;37.974;23.708;2023-06-14T02:34:01;27.30;46.80
80250;DHT22;69561;37.974;23.708;2023-06-14T02:36:27;27.40;46.90
80250;DHT22;69561;37.974;23.708;2023-06-14T02:38:56;27.30;46.80
80250;DHT22;69561;37.974;23.708;2023-06-14T02:41:24;27.30;46.80
80250;DHT22;69561;37.974;23.708;2023-06-14T02:43:50;27.30;46.80
80250;DHT22;69561;37.974;23.708;2023-06-14T02:46:15;27.30;46.80
80250;DHT22;69561;37.974;23.708;2023-06-14T02:48:41;27.40;46.80
80250;DHT22;69561;37.974;23.708;2023-06-14T02:51:07;27.40;46.80
80250;DHT22;69561;37.974;23.708;2023-06-14T02:53:34;27.40;46.80
80250;DHT22;69561;37.974;23.708;2023-06-14T02:56:00;27.40;46.80
80250;DHT22;69561;37.974;23.708;2023-06-14T02:58:26;27.30;47.70
80250;DHT22;69561;37.974;23.708;2023-06-14T03:00:52;27.30;46.70
80250;DHT22;69561;37.974;23.708;2023-06-14T03:03:18;27.30;46.70
80250;DHT22;69561;37.974;23.708;2023-06-14T03:05:47;27.40;46.80
80250;DHT22;69561;37.974;23.708;2023-06-14T03:08:17;27.40;46.80
80250;DHT22;69561;37.974;23.708;2023-06-14T03:10:45;27.40;46.70
80250;DHT22;69561;37.974;23.708;2023-06-14T03:13:15;27.30;46.70
80250;DHT22;69561;37.974;23.708;2023-06-14T03:15:48;27.40;46.80
80250;DHT22;69561;37.974;23.708;2023-06-14T03:18:16;27.40;46.70
80250;DHT22;69561;37.974;23.708;2023-06-14T03:20:42;27.30;46.70
80250;DHT22;69561;37.974;23.708;2023-06-14T03:23:08;27.30;46.70
80250;DHT22;69561;37.974;23.708;2023-06-14T03:25:34;27.40;46.80
80250;DHT22;69561;37.974;23.708;2023-06-14T03:28:04;27.30;46.70
80250;DHT22;69561;37.974;23.708;2023-06-14T03:30:31;27.30;46.80
80250;DHT22;69561;37.974;23.708;2023-06-14T03:32:57;27.40;46.90
80250;DHT22;69561;37.974;23.708;2023-06-14T03:35:23;27.40;46.80
80250;DHT22;69561;37.974;23.708;2023-06-14T03:37:49;27.40;46.80
80250;DHT22;69561;37.974;23.708;2023-06-14T03:40:18;27.40;46.70
80250;DHT22;69561;37.974;23.708;2023-06-14T03:42:45;27.40;46.50
80250;DHT22;69561;37.974;23.708;2023-06-14T03:45:11;27.40;46.30
80250;DHT22;69561;37.974;23.708;2023-06-14T03:47:37;27.50;46.20
80250;DHT22;69561;37.974;23.708;2023-06-14T03:50:03;27.40;46.00
80250;DHT22;69561;37.974;23.708;2023-06-14T03:52:30;27.50;45.80
80250;DHT22;69561;37.974;23.708;2023-06-14T03:54:56;27.50;45.60
80250;DHT22;69561;37.974;23.708;2023-06-14T03:57:23;27.50;45.40
80250;DHT22;69561;37.974;23.708;2023-06-14T03:59:49;27.60;45.40
80250;DHT22;69561;37.974;23.708;2023-06-14T04:02:15;27.60;45.40
80250;DHT22;69561;37.974;23.708;2023-06-14T04:04:42;27.60;45.60
80250;DHT22;69561;37.974;23.708;2023-06-14T04:07:13;27.60;45.70
80250;DHT22;69561;37.974;23.708;2023-06-14T04:09:39;27.60;45.60
80250;DHT22;69561;37.974;23.708;2023-06-14T04:12:06;27.70;45.60
80250;DHT22;69561;37.974;23.708;2023-06-14T04:14:32;27.70;45.60
80250;DHT22;69561;37.974;23.708;2023-06-14T04:16:58;27.70;45.50
80250;DHT22;69561;37.974;23.708;2023-06-14T04:19:24;27.70;45.60
80250;DHT22;69561;37.974;23.708;2023-06-14T04:21:50;27.80;45.60
80250;DHT22;69561;37.974;23.708;2023-06-14T04:24:16;27.80;45.60
80250;DHT22;69561;37.974;23.708;2023-06-14T04:26:42;27.80;45.60
80250;DHT22;69561;37.974;23.708;2023-06-14T04:29:10;27.80;45.60
80250;DHT22;69561;37.974;23.708;2023-06-14T04:31:40;27.80;45.60
80250;DHT22;69561;37.974;23.708;2023-06-14T04:34:06;27.80;45.60
80250;DHT22;69561;37.974;23.708;2023-06-14T04:36:35;27.80;45.50
80250;DHT22;69561;37.974;23.708;2023-06-14T04:39:04;27.80;45.50
80250;DHT22;69561;37.974;23.708;2023-06-14T04:41:30;27.80;45.50
80250;DHT22;69561;37.974;23.708;2023-06-14T04:44:00;27.90;45.40
80250;DHT22;69561;37.974;23.708;2023-06-14T04:46:30;27.90;45.40
80250;DHT22;69561;37.974;23.708;2023-06-14T04:48:57;27.90;45.40
80250;DHT22;69561;37.974;23.708;2023-06-14T04:51:28;27.90;45.40
80250;DHT22;69561;37.974;23.708;2023-06-14T04:53:56;27.90;45.50
80250;DHT22;69561;37.974;23.708;2023-06-14T04:56:25;27.90;45.40
80250;DHT22;69561;37.974;23.708;2023-06-14T04:58:51;27.90;45.40
80250;DHT22;69561;37.974;23.708;2023-06-14T05:01:19;27.90;45.40
80250;DHT22;69561;37.974;23.708;2023-06-14T05:03:45;27.90;45.50
80250;DHT22;69561;37.974;23.708;2023-06-14T05:06:14;27.90;45.40
80250;DHT22;69561;37.974;23.708;2023-06-14T05:08:41;27.90;45.40
80250;DHT22;69561;37.974;23.708;2023-06-14T05:11:07;27.90;45.40
80250;DHT22;69561;37.974;23.708;2023-06-14T05:13:32;28.00;45.40
80250;DHT22;69561;37.974;23.708;2023-06-14T05:15:59;28.00;45.30
80250;DHT22;69561;37.974;23.708;2023-06-14T05:18:26;28.00;45.30
80250;DHT22;69561;37.974;23.708;2023-06-14T05:20:52;28.00;45.30
80250;DHT22;69561;37.974;23.708;2023-06-14T05:23:17;28.10;45.00
80250;DHT22;69561;37.974;23.708;2023-06-14T05:25:44;28.10;45.40
80250;DHT22;69561;37.974;23.708;2023-06-14T05:28:10;28.10;45.40
80250;DHT22;69561;37.974;23.708;2023-06-14T05:30:38;28.20;45.40
80250;DHT22;69561;37.974;23.708;2023-06-14T05:33:04;28.20;45.40
80250;DHT22;69561;37.974;23.708;2023-06-14T05:35:29;28.10;45.30
80250;DHT22;69561;37.974;23.708;2023-06-14T05:37:55;28.10;45.30
80250;DHT22;69561;37.974;23.708;2023-06-14T05:40:21;28.10;45.30
80250;DHT22;69561;37.974;23.708;2023-06-14T05:42:47;28.10;45.30
80250;DHT22;69561;37.974;23.708;2023-06-14T05:45:13;28.10;45.20
80250;DHT22;69561;37.974;23.708;2023-06-14T05:47:40;28.00;45.20
80250;DHT22;69561;37.974;23.708;2023-06-14T05:50:06;28.00;45.10
80250;DHT22;69561;37.974;23.708;2023-06-14T05:52:32;28.00;45.10
80250;DHT22;69561;37.974;23.708;2023-06-14T05:54:58;28.10;45.10
80250;DHT22;69561;37.974;23.708;2023-06-14T05:57:26;28.10;45.00
80250;DHT22;69561;37.974;23.708;2023-06-14T05:59:52;28.10;45.00
80250;DHT22;69561;37.974;23.708;2023-06-14T06:02:17;28.00;44.80
80250;DHT22;69561;37.974;23.708;2023-06-14T06:04:43;28.00;44.80
80250;DHT22;69561;37.974;23.708;2023-06-14T06:07:09;28.00;44.80
80250;DHT22;69561;37.974;23.708;2023-06-14T06:09:35;28.00;44.70
80250;DHT22;69561;37.974;23.708;2023-06-14T06:12:01;28.00;44.70
80250;DHT22;69561;37.974;23.708;2023-06-14T06:14:27;28.00;44.60
80250;DHT22;69561;37.974;23.708;2023-06-14T06:16:54;28.00;44.60
80250;DHT22;69561;37.974;23.708;2023-06-14T06:19:19;28.00;44.50
80250;DHT22;69561;37.974;23.708;2023-06-14T06:21:45;28.00;44.50
80250;DHT22;69561;37.974;23.708;2023-06-14T06:24:11;28.00;44.50
80250;DHT22;69561;37.974;23.708;2023-06-14T06:26:37;28.00;44.50
80250;DHT22;69561;37.974;23.708;2023-06-14T06:29:04;28.00;44.40
80250;DHT22;69561;37.974;23.708;2023-06-14T06:31:30;28.00;44.40
80250;DHT22;69561;37.974;23.708;2023-06-14T06:33:55;28.00;44.40
80250;DHT22;69561;37.974;23.708;2023-06-14T06:36:27;27.90;44.30
80250;DHT22;69561;37.974;23.708;2023-06-14T06:38:53;28.00;44.40
80250;DHT22;69561;37.974;23.708;2023-06-14T06:41:19;28.00;44.40
80250;DHT22;69561;37.974;23.708;2023-06-14T06:43:44;27.90;44.30
80250;DHT22;69561;37.974;23.708;2023-06-14T06:46:10;28.00;44.30
80250;DHT22;69561;37.974;23.708;2023-06-14T06:48:36;27.90;44.30
80250;DHT22;69561;37.974;23.708;2023-06-14T06:51:02;27.90;44.30
80250;DHT22;69561;37.974;23.708;2023-06-14T06:53:27;28.00;44.30
80250;DHT22;69561;37.974;23.708;2023-06-14T06:55:53;27.90;44.40
80250;DHT22;69561;37.974;23.708;2023-06-14T06:58:19;27.90;44.30
80250;DHT22;69561;37.974;23.708;2023-06-14T07:00:47;27.90;44.30
80250;DHT22;69561;37.974;23.708;2023-06-14T07:03:13;27.90;44.30
80250;DHT22;69561;37.974;23.708;2023-06-14T07:05:38;27.90;44.30
80250;DHT22;69561;37.974;23.708;2023-06-14T07:08:05;27.90;44.40
80250;DHT22;69561;37.974;23.708;2023-06-14T07:10:30;27.90;44.40
80250;DHT22;69561;37.974;23.708;2023-06-14T07:12:56;27.80;44.30
80250;DHT22;69561;37.974;23.708;2023-06-14T07:15:23;27.80;44.30
80250;DHT22;69561;37.974;23.708;2023-06-14T07:17:50;27.90;44.30
80250;DHT22;69561;37.974;23.708;2023-06-14T07:20:20;27.90;44.30
80250;DHT22;69561;37.974;23.708;2023-06-14T07:22:46;27.90;44.30
80250;DHT22;69561;37.974;23.708;2023-06-14T07:25:13;27.80;44.30
80250;DHT22;69561;37.974;23.708;2023-06-14T07:27:43;27.80;44.20
80250;DHT22;69561;37.974;23.708;2023-06-14T07:30:09;27.80;44.20
80250;DHT22;69561;37.974;23.708;2023-06-14T07:32:36;27.80;44.20
80250;DHT22;69561;37.974;23.708;2023-06-14T07:35:02;27.90;44.20
80250;DHT22;69561;37.974;23.708;2023-06-14T07:37:28;27.80;44.20
80250;DHT22;69561;37.974;23.708;2023-06-14T07:39:54;27.80;44.20
80250;DHT22;69561;37.974;23.708;2023-06-14T07:42:20;27.80;44.10
80250;DHT22;69561;37.974;23.708;2023-06-14T07:44:46;27.80;44.20
80250;DHT22;69561;37.974;23.708;2023-06-14T07:47:11;27.80;44.20
80250;DHT22;69561;37.974;23.708;2023-06-14T07:49:40;27.80;44.20
80250;DHT22;69561;37.974;23.708;2023-06-14T07:52:07;27.80;44.30
80250;DHT22;69561;37.974;23.708;2023-06-14T07:54:33;27.70;44.20
80250;DHT22;69561;37.974;23.708;2023-06-14T07:56:59;27.70;44.20
80250;DHT22;69561;37.974;23.708;2023-06-14T07:59:26;27.70;44.30
80250;DHT22;69561;37.974;23.708;2023-06-14T08:01:52;27.70;44.30
80250;DHT22;69561;37.974;23.708;2023-06-14T08:04:17;27.80;44.30
80250;DHT22;69561;37.974;23.708;2023-06-14T08:06:43;27.70;44.30
80250;DHT22;69561;37.974;23.708;2023-06-14T08:09:11;27.70;44.30
80250;DHT22;69561;37.974;23.708;2023-06-14T08:11:38;27.70;44.30
80250;DHT22;69561;37.974;23.708;2023-06-14T08:14:03;27.70;44.30
80250;DHT22;69561;37.974;23.708;2023-06-14T08:16:32;27.70;44.30
80250;DHT22;69561;37.974;23.708;2023-06-14T08:18:58;27.70;44.40
80250;DHT22;69561;37.974;23.708;2023-06-14T08:21:24;27.70;44.30
80250;DHT22;69561;37.974;23.708;2023-06-14T08:23:54;27.70;44.30
80250;DHT22;69561;37.974;23.708;2023-06-14T08:26:20;27.70;44.30
80250;DHT22;69561;37.974;23.708;2023-06-14T08:28:46;27.70;44.30
80250;DHT22;69561;37.974;23.708;2023-06-14T08:31:12;27.60;44.20
80250;DHT22;69561;37.974;23.708;2023-06-14T08:33:38;27.60;44.20
80250;DHT22;69561;37.974;23.708;2023-06-14T08:36:11;27.60;44.20
80250;DHT22;69561;37.974;23.708;2023-06-14T08:38:37;27.60;44.20
80250;DHT22;69561;37.974;23.708;2023-06-14T08:41:05;27.60;44.20
80250;DHT22;69561;37.974;23.708;2023-06-14T08:43:34;27.60;44.10
80250;DHT22;69561;37.974;23.708;2023-06-14T08:46:04;27.60;44.20
80250;DHT22;69561;37.974;23.708;2023-06-14T08:48:32;27.50;44.00
80250;DHT22;69561;37.974;23.708;2023-06-14T08:51:03;27.60;44.00
80250;DHT22;69561;37.974;23.708;2023-06-14T08:53:33;27.50;43.90
80250;DHT22;69561;37.974;23.708;2023-06-14T08:56:02;27.50;43.90
80250;DHT22;69561;37.974;23.708;2023-06-14T08:58:31;27.50;43.80
80250;DHT22;69561;37.974;23.708;2023-06-14T09:01:02;27.60;43.90
80250;DHT22;69561;37.974;23.708;2023-06-14T09:03:28;27.50;43.90
80250;DHT22;69561;37.974;23.708;2023-06-14T09:05:59;27.50;44.00
80250;DHT22;69561;37.974;23.708;2023-06-14T09:08:27;27.50;44.00
80250;DHT22;69561;37.974;23.708;2023-06-14T09:10:56;27.50;44.00
80250;DHT22;69561;37.974;23.708;2023-06-14T09:13:21;27.50;44.00
80250;DHT22;69561;37.974;23.708;2023-06-14T09:15:47;27.50;44.00
80250;DHT22;69561;37.974;23.708;2023-06-14T09:18:13;27.50;44.00
80250;DHT22;69561;37.974;23.708;2023-06-14T09:20:40;27.50;44.00
80250;DHT22;69561;37.974;23.708;2023-06-14T09:23:06;27.50;43.90
80250;DHT22;69561;37.974;23.708;2023-06-14T09:25:42;27.50;43.90
80250;DHT22;69561;37.974;23.708;2023-06-14T09:28:09;27.50;43.80
80250;DHT22;69561;37.974;23.708;2023-06-14T09:30:36;27.50;44.90
80250;DHT22;69561;37.974;23.708;2023-06-14T09:33:02;27.50;43.80
80250;DHT22;69561;37.974;23.708;2023-06-14T09:35:28;27.50;44.00
80250;DHT22;69561;37.974;23.708;2023-06-14T09:37:56;27.50;44.10
80250;DHT22;69561;37.974;23.708;2023-06-14T09:40:22;27.50;44.40
80250;DHT22;69561;37.974;23.708;2023-06-14T09:42:48;27.50;44.70
80250;DHT22;69561;37.974;23.708;2023-06-14T09:45:15;27.50;44.80
80250;DHT22;69561;37.974;23.708;2023-06-14T09:47:49;27.50;45.00
80250;DHT22;69561;37.974;23.708;2023-06-14T09:50:14;27.50;45.20
80250;DHT22;69561;37.974;23.708;2023-06-14T09:52:43;27.50;45.30
80250;DHT22;69561;37.974;23.708;2023-06-14T09:55:12;27.50;45.50
80250;DHT22;69561;37.974;23.708;2023-06-14T09:57:41;27.50;45.60
80250;DHT22;69561;37.974;23.708;2023-06-14T10:00:09;27.50;45.70
80250;DHT22;69561;37.974;23.708;2023-06-14T10:02:39;27.50;46.00
80250;DHT22;69561;37.974;23.708;2023-06-14T10:05:09;27.50;46.10
80250;DHT22;69561;37.974;23.708;2023-06-14T10:07:58;27.50;46.20
80250;DHT22;69561;37.974;23.708;2023-06-14T10:10:25;27.40;46.20
80250;DHT22;69561;37.974;23.708;2023-06-14T10:12:51;27.40;46.20
80250;DHT22;69561;37.974;23.708;2023-06-14T10:15:29;27.50;46.30
80250;DHT22;69561;37.974;23.708;2023-06-14T10:21:16;27.40;46.30
80250;DHT22;69561;37.974;23.708;2023-06-14T10:23:45;27.40;46.40
80250;DHT22;69561;37.974;23.708;2023-06-14T10:26:21;27.40;46.40
80250;DHT22;69561;37.974;23.708;2023-06-14T10:28:58;27.40;46.40
80250;DHT22;69561;37.974;23.708;2023-06-14T10:31:45;27.40;46.40
80250;DHT22;69561;37.974;23.708;2023-06-14T10:34:12;27.40;46.40
80250;DHT22;69561;37.974;23.708;2023-06-14T10:36:41;27.40;46.30
80250;DHT22;69561;37.974;23.708;2023-06-14T10:39:16;27.40;46.30
80250;DHT22;69561;37.974;23.708;2023-06-14T10:41:56;27.40;46.30
80250;DHT22;69561;37.974;23.708;2023-06-14T10:46:49;27.40;46.30
80250;DHT22;69561;37.974;23.708;2023-06-14T10:52:09;27.40;46.30
80250;DHT22;69561;37.974;23.708;2023-06-14T10:54:37;27.40;46.30
80250;DHT22;69561;37.974;23.708;2023-06-14T10:57:07;27.40;46.30
80250;DHT22;69561;37.974;23.708;2023-06-14T10:59:36;27.40;46.30
80250;DHT22;69561;37.974;23.708;2023-06-14T11:04:51;27.40;46.40
80250;DHT22;69561;37.974;23.708;2023-06-14T11:12:59;27.30;46.20
80250;DHT22;69561;37.974;23.708;2023-06-14T11:15:32;27.30;46.20
80250;DHT22;69561;37.974;23.708;2023-06-14T11:18:01;27.30;46.20
80250;DHT22;69561;37.974;23.708;2023-06-14T11:20:31;27.30;46.20
80250;DHT22;69561;37.974;23.708;2023-06-14T11:22:57;27.30;46.10
80250;DHT22;69561;37.974;23.708;2023-06-14T11:25:23;27.30;46.00
80250;DHT22;69561;37.974;23.708;2023-06-14T11:27:50;27.30;46.00
80250;DHT22;69561;37.974;23.708;2023-06-14T11:30:16;27.30;45.90
80250;DHT22;69561;37.974;23.708;2023-06-14T11:32:45;27.30;45.90
80250;DHT22;69561;37.974;23.708;2023-06-14T11:35:11;27.40;46.00
80250;DHT22;69561;37.974;23.708;2023-06-14T11:37:39;27.30;45.90
80250;DHT22;69561;37.974;23.708;2023-06-14T11:40:08;27.40;46.00
80250;DHT22;69561;37.974;23.708;2023-06-14T11:42:36;27.30;46.00
80250;DHT22;69561;37.974;23.708;2023-06-14T11:45:02;27.30;46.00
80250;DHT22;69561;37.974;23.708;2023-06-14T11:47:32;27.30;46.00
80250;DHT22;69561;37.974;23.708;2023-06-14T11:49:59;27.30;46.00
80250;DHT22;69561;37.974;23.708;2023-06-14T11:52:25;27.30;46.10
80250;DHT22;69561;37.974;23.708;2023-06-14T11:54:52;27.30;46.00
80250;DHT22;69561;37.974;23.708;2023-06-14T11:57:18;27.30;46.10
80250;DHT22;69561;37.974;23.708;2023-06-14T11:59:44;27.30;46.10
80250;DHT22;69561;37.974;23.708;2023-06-14T12:02:15;27.30;46.10
80250;DHT22;69561;37.974;23.708;2023-06-14T12:04:41;27.30;46.20
80250;DHT22;69561;37.974;23.708;2023-06-14T12:07:14;27.30;46.30
80250;DHT22;69561;37.974;23.708;2023-06-14T12:12:21;27.40;46.40
80250;DHT22;69561;37.974;23.708;2023-06-14T12:14:49;27.30;46.40
80250;DHT22;69561;37.974;23.708;2023-06-14T12:17:17;27.30;46.40
80250;DHT22;69561;37.974;23.708;2023-06-14T12:19:44;27.30;46.40
80250;DHT22;69561;37.974;23.708;2023-06-14T12:22:11;27.30;46.40
80250;DHT22;69561;37.974;23.708;2023-06-14T12:24:37;27.30;46.40
80250;DHT22;69561;37.974;23.708;2023-06-14T12:27:06;27.30;46.50
80250;DHT22;69561;37.974;23.708;2023-06-14T12:29:32;27.30;46.40
80250;DHT22;69561;37.974;23.708;2023-06-14T12:31:59;27.30;47.30
80250;DHT22;69561;37.974;23.708;2023-06-14T12:34:25;27.30;46.40
80250;DHT22;69561;37.974;23.708;2023-06-14T12:36:53;27.30;46.40
80250;DHT22;69561;37.974;23.708;2023-06-14T12:39:19;27.30;46.30
80250;DHT22;69561;37.974;23.708;2023-06-14T12:41:46;27.30;46.30
80250;DHT22;69561;37.974;23.708;2023-06-14T12:44:12;27.30;46.40
80250;DHT22;69561;37.974;23.708;2023-06-14T12:46:39;27.30;46.30
80250;DHT22;69561;37.974;23.708;2023-06-14T12:49:07;27.30;46.30
80250;DHT22;69561;37.974;23.708;2023-06-14T12:51:33;27.30;46.30
80250;DHT22;69561;37.974;23.708;2023-06-14T12:53:59;27.30;46.30
80250;DHT22;69561;37.974;23.708;2023-06-14T12:56:25;27.30;46.40
80250;DHT22;69561;37.974;23.708;2023-06-14T12:58:51;27.30;46.30
80250;DHT22;69561;37.974;23.708;2023-06-14T13:01:18;27.30;46.20
80250;DHT22;69561;37.974;23.708;2023-06-14T13:03:43;27.30;46.20
80250;DHT22;69561;37.974;23.708;2023-06-14T13:06:09;27.30;46.10
80250;DHT22;69561;37.974;23.708;2023-06-14T13:08:38;27.30;46.10
80250;DHT22;69561;37.974;23.708;2023-06-14T13:11:04;27.30;46.00
80250;DHT22;69561;37.974;23.708;2023-06-14T13:13:29;27.30;46.00
80250;DHT22;69561;37.974;23.708;2023-06-14T13:15:55;27.30;46.10
80250;DHT22;69561;37.974;23.708;2023-06-14T13:18:21;27.30;46.10
80250;DHT22;69561;37.974;23.708;2023-06-14T13:21:05;27.30;46.10
80250;DHT22;69561;37.974;23.708;2023-06-14T13:23:31;27.30;46.20
80250;DHT22;69561;37.974;23.708;2023-06-14T13:25:56;27.30;46.20
80250;DHT22;69561;37.974;23.708;2023-06-14T13:28:22;27.30;46.10
80250;DHT22;69561;37.974;23.708;2023-06-14T13:30:48;27.30;46.10
80250;DHT22;69561;37.974;23.708;2023-06-14T13:33:14;27.40;46.20
80250;DHT22;69561;37.974;23.708;2023-06-14T13:35:39;27.30;46.20
80250;DHT22;69561;37.974;23.708;2023-06-14T13:38:05;27.30;46.30
80250;DHT22;69561;37.974;23.708;2023-06-14T13:40:31;27.30;46.40
80250;DHT22;69561;37.974;23.708;2023-06-14T13:42:57;27.30;46.50
80250;DHT22;69561;37.974;23.708;2023-06-14T13:45:22;27.30;46.70
80250;DHT22;69561;37.974;23.708;2023-06-14T13:47:48;27.30;46.90
80250;DHT22;69561;37.974;23.708;2023-06-14T13:50:14;27.30;47.00
80250;DHT22;69561;37.974;23.708;2023-06-14T13:52:40;27.30;47.10
80250;DHT22;69561;37.974;23.708;2023-06-14T13:55:06;27.30;47.20
80250;DHT22;69561;37.974;23.708;2023-06-14T13:57:33;27.30;47.40
80250;DHT22;69561;37.974;23.708;2023-06-14T13:59:58;27.30;47.60
80250;DHT22;69561;37.974;23.708;2023-06-14T14:02:27;27.30;47.70
80250;DHT22;69561;37.974;23.708;2023-06-14T14:04:54;27.30;47.70
80250;DHT22;69561;37.974;23.708;2023-06-14T14:07:20;27.30;47.80
80250;DHT22;69561;37.974;23.708;2023-06-14T14:09:47;27.30;47.80
80250;DHT22;69561;37.974;23.708;2023-06-14T14:12:13;27.30;47.90
80250;DHT22;69561;37.974;23.708;2023-06-14T14:14:40;27.20;47.90
80250;DHT22;69561;37.974;23.708;2023-06-14T14:17:06;27.30;47.90
80250;DHT22;69561;37.974;23.708;2023-06-14T14:19:32;27.30;48.00
80250;DHT22;69561;37.974;23.708;2023-06-14T14:21:58;27.30;48.00
80250;DHT22;69561;37.974;23.708;2023-06-14T14:24:24;27.30;48.10
80250;DHT22;69561;37.974;23.708;2023-06-14T14:26:51;27.20;48.20
80250;DHT22;69561;37.974;23.708;2023-06-14T14:29:19;27.20;48.20
80250;DHT22;69561;37.974;23.708;2023-06-14T14:31:45;27.20;48.30
80250;DHT22;69561;37.974;23.708;2023-06-14T14:34:11;27.30;48.50
80250;DHT22;69561;37.974;23.708;2023-06-14T14:36:37;27.20;48.40
80250;DHT22;69561;37.974;23.708;2023-06-14T14:39:04;27.20;48.50
80250;DHT22;69561;37.974;23.708;2023-06-14T14:41:30;27.20;48.60
80250;DHT22;69561;37.974;23.708;2023-06-14T14:43:55;27.20;48.50
80250;DHT22;69561;37.974;23.708;2023-06-14T14:46:21;27.20;48.50
80250;DHT22;69561;37.974;23.708;2023-06-14T14:48:47;27.20;48.50
80250;DHT22;69561;37.974;23.708;2023-06-14T14:51:12;27.20;48.60
80250;DHT22;69561;37.974;23.708;2023-06-14T14:53:38;27.20;48.60
80250;DHT22;69561;37.974;23.708;2023-06-14T14:56:04;27.20;48.60
80250;DHT22;69561;37.974;23.708;2023-06-14T14:58:30;27.20;48.80
80250;DHT22;69561;37.974;23.708;2023-06-14T15:00:55;27.20;48.80
80250;DHT22;69561;37.974;23.708;2023-06-14T15:03:21;27.20;48.90
80250;DHT22;69561;37.974;23.708;2023-06-14T15:05:47;27.20;49.10
80250;DHT22;69561;37.974;23.708;2023-06-14T15:08:13;27.20;49.10
80250;DHT22;69561;37.974;23.708;2023-06-14T15:10:39;27.20;49.30
80250;DHT22;69561;37.974;23.708;2023-06-14T15:13:07;27.20;49.40
80250;DHT22;69561;37.974;23.708;2023-06-14T15:15:36;27.20;49.50
80250;DHT22;69561;37.974;23.708;2023-06-14T15:18:03;27.20;49.70
80250;DHT22;69561;37.974;23.708;2023-06-14T15:20:29;27.20;49.70
80250;DHT22;69561;37.974;23.708;2023-06-14T15:22:55;27.20;49.80
80250;DHT22;69561;37.974;23.708;2023-06-14T15:25:28;27.20;49.90
80250;DHT22;69561;37.974;23.708;2023-06-14T15:27:54;27.20;49.90
80250;DHT22;69561;37.974;23.708;2023-06-14T15:30:23;27.20;49.90
80250;DHT22;69561;37.974;23.708;2023-06-14T15:32:49;27.20;49.80
80250;DHT22;69561;37.974;23.708;2023-06-14T15:35:17;27.20;49.80
80250;DHT22;69561;37.974;23.708;2023-06-14T15:37:47;27.30;49.80
80250;DHT22;69561;37.974;23.708;2023-06-14T15:40:13;27.30;49.70
80250;DHT22;69561;37.974;23.708;2023-06-14T15:42:38;27.30;49.70